sensor_id;sensor_type;location;lat;lon;timestamp;temperature;humidity
11908;DHT22;6014;47.690;9.130;2023-02-28T00:00:07;-0.40;99.90
11908;DHT22;6014;47.690;9.130;2023-02-28T00:02:56;-0.30;99.90
11908;DHT22;6014;47.690;9.130;2023-02-28T00:05:25;-0.40;99.90
11908;DHT22;6014;47.690;9.130;2023-02-28T00:07:54;-0.40;99.90
11908;DHT22;6014;47.690;9.130;2023-02-28T00:10:25;-0.40;99.90
11908;DHT22;6014;47.690;9.130;2023-02-28T00:12:59;-0.40;99.90
11908;DHT22;6014;47.690;9.130;2023-02-28T00:15:27;-0.40;99.90
11908;DHT22;6014;47.690;9.130;2023-02-28T00:17:55;-0.40;99.90
11908;DHT22;6014;47.690;9.130;2023-02-28T00:20:23;-0.40;99.90
11908;DHT22;6014;47.690;9.130;2023-02-28T00:22:52;-0.40;99.90
11908;DHT22;6014;47.690;9.130;2023-02-28T00:25:23;-0.40;99.90
11908;DHT22;6014;47.690;9.130;2023-02-28T00:27:51;-0.40;99.90
11908;DHT22;6014;47.690;9.130;2023-02-28T00:30:22;-0.40;99.90
11908;DHT22;6014;47.690;9.130;2023-02-28T00:32:51;-0.40;99.90
11908;DHT22;6014;47.690;9.130;2023-02-28T00:35:19;-0.30;99.90
11908;DHT22;6014;47.690;9.130;2023-02-28T00:37:48;-0.30;99.90
11908;DHT22;6014;47.690;9.130;2023-02-28T00:40:16;-0.40;99.90
11908;DHT22;6014;47.690;9.130;2023-02-28T00:42:44;-0.40;99.90
11908;DHT22;6014;47.690;9.130;2023-02-28T00:45:12;-0.40;99.90
11908;DHT22;6014;47.690;9.130;2023-02-28T00:47:42;-0.30;99.90
11908;DHT22;6014;47.690;9.130;2023-02-28T00:50:15;-0.40;99.90
11908;DHT22;6014;47.690;9.130;2023-02-28T00:52:43;-0.40;99.90
11908;DHT22;6014;47.690;9.130;2023-02-28T00:55:15;-0.40;99.90
11908;DHT22;6014;47.690;9.130;2023-02-28T00:57:45;-0.40;99.90
11908;DHT22;6014;47.690;9.130;2023-02-28T01:00:25;-0.40;99.90
11908;DHT22;6014;47.690;9.130;2023-02-28T01:02:55;-0.40;99.90
11908;DHT22;6014;47.690;9.130;2023-02-28T01:05:26;-0.40;99.90
11908;DHT22;6014;47.690;9.130;2023-02-28T01:07:54;-0.40;99.90
11908;DHT22;6014;47.690;9.130;2023-02-28T01:10:23;-0.40;99.90
11908;DHT22;6014;47.690;9.130;2023-02-28T01:13:06;-0.40;99.90
11908;DHT22;6014;47.690;9.130;2023-02-28T01:15:36;-0.40;99.90
11908;DHT22;6014;47.690;9.130;2023-02-28T01:18:11;-0.40;99.90
11908;DHT22;6014;47.690;9.130;2023-02-28T01:20:44;-0.40;99.90
11908;DHT22;6014;47.690;9.130;2023-02-28T01:23:16;-0.40;99.90
11908;DHT22;6014;47.690;9.130;2023-02-28T01:25:48;-0.50;99.90
11908;DHT22;6014;47.690;9.130;2023-02-28T01:28:20;-0.40;99.90
11908;DHT22;6014;47.690;9.130;2023-02-28T01:31:18;-0.40;99.90
11908;DHT22;6014;47.690;9.130;2023-02-28T01:33:49;-0.40;99.90
11908;DHT22;6014;47.690;9.130;2023-02-28T01:36:25;-0.40;99.90
11908;DHT22;6014;47.690;9.130;2023-02-28T01:38:54;-0.40;99.90
11908;DHT22;6014;47.690;9.130;2023-02-28T01:41:26;-0.40;99.90
11908;DHT22;6014;47.690;9.130;2023-02-28T01:44:02;-0.40;99.90
11908;DHT22;6014;47.690;9.130;2023-02-28T01:46:33;-0.40;99.90
11908;DHT22;6014;47.690;9.130;2023-02-28T01:49:08;-0.40;99.90
11908;DHT22;6014;47.690;9.130;2023-02-28T01:51:41;-0.50;99.90
11908;DHT22;6014;47.690;9.130;2023-02-28T01:54:21;-0.50;99.90
11908;DHT22;6014;47.690;9.130;2023-02-28T01:56:54;-0.50;99.90
11908;DHT22;6014;47.690;9.130;2023-02-28T01:59:29;-0.50;99.90
11908;DHT22;6014;47.690;9.130;2023-02-28T02:02:00;-0.50;99.90
11908;DHT22;6014;47.690;9.130;2023-02-28T02:04:36;-0.40;99.90
11908;DHT22;6014;47.690;9.130;2023-02-28T02:07:07;-0.40;99.90
11908;DHT22;6014;47.690;9.130;2023-02-28T02:09:39;-0.50;99.90
11908;DHT22;6014;47.690;9.130;2023-02-28T02:12:19;-0.40;99.90
11908;DHT22;6014;47.690;9.130;2023-02-28T02:15:02;-0.40;99.90
11908;DHT22;6014;47.690;9.130;2023-02-28T02:17:39;-0.50;99.90
11908;DHT22;6014;47.690;9.130;2023-02-28T02:24:03;-0.40;99.90
11908;DHT22;6014;47.690;9.130;2023-02-28T02:26:52;-0.50;99.90
11908;DHT22;6014;47.690;9.130;2023-02-28T02:29:46;-0.50;99.90
11908;DHT22;6014;47.690;9.130;2023-02-28T02:33:02;-0.50;99.90
11908;DHT22;6014;47.690;9.130;2023-02-28T02:35:41;-0.50;99.90
11908;DHT22;6014;47.690;9.130;2023-02-28T02:38:22;-0.50;99.90
11908;DHT22;6014;47.690;9.130;2023-02-28T02:41:04;-0.50;99.90
11908;DHT22;6014;47.690;9.130;2023-02-28T02:43:44;-0.50;99.90
11908;DHT22;6014;47.690;9.130;2023-02-28T02:46:19;-0.50;99.90
11908;DHT22;6014;47.690;9.130;2023-02-28T02:48:56;-0.50;99.90
11908;DHT22;6014;47.690;9.130;2023-02-28T02:51:31;-0.50;99.90
11908;DHT22;6014;47.690;9.130;2023-02-28T02:54:05;-0.50;99.90
11908;DHT22;6014;47.690;9.130;2023-02-28T02:56:40;-0.50;99.90
11908;DHT22;6014;47.690;9.130;2023-02-28T02:59:20;-0.50;99.90
11908;DHT22;6014;47.690;9.130;2023-02-28T03:01:51;-0.50;99.90
11908;DHT22;6014;47.690;9.130;2023-02-28T03:04:24;-0.50;99.90
11908;DHT22;6014;47.690;9.130;2023-02-28T03:06:55;-0.50;99.90
11908;DHT22;6014;47.690;9.130;2023-02-28T03:09:25;-0.50;99.90
11908;DHT22;6014;47.690;9.130;2023-02-28T03:11:55;-0.50;99.90
11908;DHT22;6014;47.690;9.130;2023-02-28T03:14:33;-0.50;99.90
11908;DHT22;6014;47.690;9.130;2023-02-28T03:17:23;-0.60;99.90
11908;DHT22;6014;47.690;9.130;2023-02-28T03:20:07;-0.50;99.90
11908;DHT22;6014;47.690;9.130;2023-02-28T03:22:52;-0.60;99.90
11908;DHT22;6014;47.690;9.130;2023-02-28T03:25:29;-0.60;99.90
11908;DHT22;6014;47.690;9.130;2023-02-28T03:28:03;-0.50;99.90
11908;DHT22;6014;47.690;9.130;2023-02-28T03:30:41;-0.50;99.90
11908;DHT22;6014;47.690;9.130;2023-02-28T03:33:12;-0.50;99.90
11908;DHT22;6014;47.690;9.130;2023-02-28T03:35:43;-0.50;99.90
11908;DHT22;6014;47.690;9.130;2023-02-28T03:38:19;-0.50;99.90
11908;DHT22;6014;47.690;9.130;2023-02-28T03:40:51;-0.50;99.90
11908;DHT22;6014;47.690;9.130;2023-02-28T03:43:25;-0.50;99.90
11908;DHT22;6014;47.690;9.130;2023-02-28T03:45:55;-0.50;99.90
11908;DHT22;6014;47.690;9.130;2023-02-28T03:48:27;-0.50;99.90
11908;DHT22;6014;47.690;9.130;2023-02-28T03:50:58;-0.50;99.90
11908;DHT22;6014;47.690;9.130;2023-02-28T03:53:31;-0.50;99.90
11908;DHT22;6014;47.690;9.130;2023-02-28T03:56:05;-0.50;99.90
11908;DHT22;6014;47.690;9.130;2023-02-28T03:58:39;-0.50;99.90
11908;DHT22;6014;47.690;9.130;2023-02-28T04:01:12;-0.60;99.90
11908;DHT22;6014;47.690;9.130;2023-02-28T04:03:40;-0.50;99.90
11908;DHT22;6014;47.690;9.130;2023-02-28T04:06:15;-0.50;99.90
11908;DHT22;6014;47.690;9.130;2023-02-28T04:08:45;-0.50;99.90
11908;DHT22;6014;47.690;9.130;2023-02-28T04:11:20;-0.50;99.90
11908;DHT22;6014;47.690;9.130;2023-02-28T04:13:49;-0.50;99.90
11908;DHT22;6014;47.690;9.130;2023-02-28T04:16:17;-0.50;99.90
11908;DHT22;6014;47.690;9.130;2023-02-28T04:19:00;-0.50;99.90
11908;DHT22;6014;47.690;9.130;2023-02-28T04:21:30;-0.50;99.90
11908;DHT22;6014;47.690;9.130;2023-02-28T04:24:00;-0.50;99.90
11908;DHT22;6014;47.690;9.130;2023-02-28T04:26:29;-0.50;99.90
11908;DHT22;6014;47.690;9.130;2023-02-28T04:28:57;-0.50;99.90
11908;DHT22;6014;47.690;9.130;2023-02-28T04:31:26;-0.50;99.90
11908;DHT22;6014;47.690;9.130;2023-02-28T04:33:54;-0.50;99.90
11908;DHT22;6014;47.690;9.130;2023-02-28T04:36:23;-0.50;99.90
11908;DHT22;6014;47.690;9.130;2023-02-28T04:38:51;-0.50;99.90
11908;DHT22;6014;47.690;9.130;2023-02-28T04:41:21;-0.50;99.90
11908;DHT22;6014;47.690;9.130;2023-02-28T04:43:50;-0.60;99.90
11908;DHT22;6014;47.690;9.130;2023-02-28T04:46:19;-0.50;99.90
11908;DHT22;6014;47.690;9.130;2023-02-28T04:48:50;-0.50;99.90
11908;DHT22;6014;47.690;9.130;2023-02-28T04:51:18;-0.50;99.90
11908;DHT22;6014;47.690;9.130;2023-02-28T04:53:48;-0.50;99.90
11908;DHT22;6014;47.690;9.130;2023-02-28T04:56:17;-0.50;99.90
11908;DHT22;6014;47.690;9.130;2023-02-28T04:58:49;-0.50;99.90
11908;DHT22;6014;47.690;9.130;2023-02-28T05:01:22;-0.50;99.90
11908;DHT22;6014;47.690;9.130;2023-02-28T05:03:52;-0.50;99.90
11908;DHT22;6014;47.690;9.130;2023-02-28T05:06:22;-0.50;99.90
11908;DHT22;6014;47.690;9.130;2023-02-28T05:08:51;-0.50;99.90
11908;DHT22;6014;47.690;9.130;2023-02-28T05:11:21;-0.60;99.90
11908;DHT22;6014;47.690;9.130;2023-02-28T05:13:52;-0.60;99.90
11908;DHT22;6014;47.690;9.130;2023-02-28T05:16:21;-0.60;99.90
11908;DHT22;6014;47.690;9.130;2023-02-28T05:18:49;-0.60;99.90
11908;DHT22;6014;47.690;9.130;2023-02-28T05:21:28;-0.70;99.90
11908;DHT22;6014;47.690;9.130;2023-02-28T05:23:59;-0.70;99.90
11908;DHT22;6014;47.690;9.130;2023-02-28T05:26:34;-0.60;99.90
11908;DHT22;6014;47.690;9.130;2023-02-28T05:29:03;-0.60;99.90
11908;DHT22;6014;47.690;9.130;2023-02-28T05:31:32;-0.70;99.90
11908;DHT22;6014;47.690;9.130;2023-02-28T05:34:00;-0.70;99.90
11908;DHT22;6014;47.690;9.130;2023-02-28T05:36:30;-0.60;99.90
11908;DHT22;6014;47.690;9.130;2023-02-28T05:38:59;-0.60;99.90
11908;DHT22;6014;47.690;9.130;2023-02-28T05:41:27;-0.60;99.90
11908;DHT22;6014;47.690;9.130;2023-02-28T05:43:55;-0.60;99.90
11908;DHT22;6014;47.690;9.130;2023-02-28T05:46:26;-0.60;99.90
11908;DHT22;6014;47.690;9.130;2023-02-28T05:48:54;-0.60;99.90
11908;DHT22;6014;47.690;9.130;2023-02-28T05:51:22;-0.50;99.90
11908;DHT22;6014;47.690;9.130;2023-02-28T05:53:50;-0.70;99.90
11908;DHT22;6014;47.690;9.130;2023-02-28T05:56:18;-0.70;99.90
11908;DHT22;6014;47.690;9.130;2023-02-28T05:58:46;-0.60;99.90
11908;DHT22;6014;47.690;9.130;2023-02-28T06:01:24;-0.60;99.90
11908;DHT22;6014;47.690;9.130;2023-02-28T06:03:53;-0.60;99.90
11908;DHT22;6014;47.690;9.130;2023-02-28T06:06:21;-0.60;99.90
11908;DHT22;6014;47.690;9.130;2023-02-28T06:08:49;-0.70;99.90
11908;DHT22;6014;47.690;9.130;2023-02-28T06:11:17;-0.60;99.90
11908;DHT22;6014;47.690;9.130;2023-02-28T06:13:47;-0.80;99.90
11908;DHT22;6014;47.690;9.130;2023-02-28T06:16:15;-0.70;99.90
11908;DHT22;6014;47.690;9.130;2023-02-28T06:18:43;-0.70;99.90
11908;DHT22;6014;47.690;9.130;2023-02-28T06:21:13;-0.70;99.90
11908;DHT22;6014;47.690;9.130;2023-02-28T06:23:41;-0.70;99.90
11908;DHT22;6014;47.690;9.130;2023-02-28T06:26:10;-0.70;99.90
11908;DHT22;6014;47.690;9.130;2023-02-28T06:28:38;-0.70;99.90
11908;DHT22;6014;47.690;9.130;2023-02-28T06:31:07;-0.70;99.90
11908;DHT22;6014;47.690;9.130;2023-02-28T06:33:36;-0.70;99.90
11908;DHT22;6014;47.690;9.130;2023-02-28T06:36:05;-0.60;99.90
11908;DHT22;6014;47.690;9.130;2023-02-28T06:38:35;-0.60;99.90
11908;DHT22;6014;47.690;9.130;2023-02-28T06:41:04;-0.60;99.90
11908;DHT22;6014;47.690;9.130;2023-02-28T06:43:34;-0.60;99.90
11908;DHT22;6014;47.690;9.130;2023-02-28T06:46:04;-0.50;99.90
11908;DHT22;6014;47.690;9.130;2023-02-28T06:48:33;-0.60;99.90
11908;DHT22;6014;47.690;9.130;2023-02-28T06:51:06;-0.70;99.90
11908;DHT22;6014;47.690;9.130;2023-02-28T06:53:36;-0.60;99.90
11908;DHT22;6014;47.690;9.130;2023-02-28T06:56:06;-0.60;99.90
11908;DHT22;6014;47.690;9.130;2023-02-28T06:58:35;-0.60;99.90
11908;DHT22;6014;47.690;9.130;2023-02-28T07:01:05;-0.60;99.90
11908;DHT22;6014;47.690;9.130;2023-02-28T07:03:35;-0.50;99.90
11908;DHT22;6014;47.690;9.130;2023-02-28T07:06:04;-0.50;99.90
11908;DHT22;6014;47.690;9.130;2023-02-28T07:08:33;-0.50;99.90
11908;DHT22;6014;47.690;9.130;2023-02-28T07:11:06;-0.60;99.90
11908;DHT22;6014;47.690;9.130;2023-02-28T07:13:35;-0.60;99.90
11908;DHT22;6014;47.690;9.130;2023-02-28T07:16:05;-0.60;99.90
11908;DHT22;6014;47.690;9.130;2023-02-28T07:18:36;-0.50;99.90
11908;DHT22;6014;47.690;9.130;2023-02-28T07:21:05;-0.60;99.90
11908;DHT22;6014;47.690;9.130;2023-02-28T07:23:34;-0.50;99.90
11908;DHT22;6014;47.690;9.130;2023-02-28T07:26:16;-0.50;99.90
11908;DHT22;6014;47.690;9.130;2023-02-28T07:28:46;-0.50;99.90
11908;DHT22;6014;47.690;9.130;2023-02-28T07:31:16;-0.50;99.90
11908;DHT22;6014;47.690;9.130;2023-02-28T07:33:45;-0.50;99.90
11908;DHT22;6014;47.690;9.130;2023-02-28T07:36:15;-0.50;99.90
11908;DHT22;6014;47.690;9.130;2023-02-28T07:38:58;-0.50;99.90
11908;DHT22;6014;47.690;9.130;2023-02-28T07:41:29;-0.50;99.90
11908;DHT22;6014;47.690;9.130;2023-02-28T07:44:19;-0.60;99.90
11908;DHT22;6014;47.690;9.130;2023-02-28T07:46:47;-0.60;99.90
11908;DHT22;6014;47.690;9.130;2023-02-28T07:49:15;-0.60;99.90
11908;DHT22;6014;47.690;9.130;2023-02-28T07:54:42;-0.70;99.90
11908;DHT22;6014;47.690;9.130;2023-02-28T07:57:11;-0.60;99.90
11908;DHT22;6014;47.690;9.130;2023-02-28T07:59:39;-0.70;99.90
11908;DHT22;6014;47.690;9.130;2023-02-28T08:02:12;-0.60;99.90
11908;DHT22;6014;47.690;9.130;2023-02-28T08:04:41;-0.50;99.90
11908;DHT22;6014;47.690;9.130;2023-02-28T08:07:09;-0.50;99.90
11908;DHT22;6014;47.690;9.130;2023-02-28T08:09:40;-0.40;99.90
11908;DHT22;6014;47.690;9.130;2023-02-28T08:12:08;-0.40;99.90
11908;DHT22;6014;47.690;9.130;2023-02-28T08:14:38;-0.40;99.90
11908;DHT22;6014;47.690;9.130;2023-02-28T08:17:07;-0.50;99.90
11908;DHT22;6014;47.690;9.130;2023-02-28T08:19:35;-0.40;99.90
11908;DHT22;6014;47.690;9.130;2023-02-28T08:22:03;-0.50;99.90
11908;DHT22;6014;47.690;9.130;2023-02-28T08:24:31;-0.50;99.90
11908;DHT22;6014;47.690;9.130;2023-02-28T08:27:00;-0.40;99.90
11908;DHT22;6014;47.690;9.130;2023-02-28T08:29:30;-0.40;99.90
11908;DHT22;6014;47.690;9.130;2023-02-28T08:32:00;-0.40;99.90
11908;DHT22;6014;47.690;9.130;2023-02-28T08:34:29;-0.30;99.90
11908;DHT22;6014;47.690;9.130;2023-02-28T08:36:57;-0.40;99.90
11908;DHT22;6014;47.690;9.130;2023-02-28T08:39:25;-0.30;99.90
11908;DHT22;6014;47.690;9.130;2023-02-28T08:41:53;-0.30;99.90
11908;DHT22;6014;47.690;9.130;2023-02-28T08:44:33;-0.30;99.90
11908;DHT22;6014;47.690;9.130;2023-02-28T08:47:03;-0.30;99.90
11908;DHT22;6014;47.690;9.130;2023-02-28T08:49:31;-0.30;99.90
11908;DHT22;6014;47.690;9.130;2023-02-28T08:52:00;-0.30;99.90
11908;DHT22;6014;47.690;9.130;2023-02-28T08:54:28;-0.30;99.90
11908;DHT22;6014;47.690;9.130;2023-02-28T08:56:58;-0.30;99.90
11908;DHT22;6014;47.690;9.130;2023-02-28T08:59:26;-0.40;99.90
11908;DHT22;6014;47.690;9.130;2023-02-28T09:01:54;-0.40;99.90
11908;DHT22;6014;47.690;9.130;2023-02-28T09:04:23;-0.40;99.90
11908;DHT22;6014;47.690;9.130;2023-02-28T09:06:51;-0.30;99.90
11908;DHT22;6014;47.690;9.130;2023-02-28T09:09:19;-0.30;99.90
11908;DHT22;6014;47.690;9.130;2023-02-28T09:11:47;-0.30;99.90
11908;DHT22;6014;47.690;9.130;2023-02-28T09:14:15;-0.30;99.90
11908;DHT22;6014;47.690;9.130;2023-02-28T09:16:44;-0.30;99.90
11908;DHT22;6014;47.690;9.130;2023-02-28T09:19:12;-0.20;99.90
11908;DHT22;6014;47.690;9.130;2023-02-28T09:21:41;-0.40;99.90
11908;DHT22;6014;47.690;9.130;2023-02-28T09:24:09;-0.30;99.90
11908;DHT22;6014;47.690;9.130;2023-02-28T09:26:40;-0.30;99.90
11908;DHT22;6014;47.690;9.130;2023-02-28T09:29:28;-0.30;99.90
11908;DHT22;6014;47.690;9.130;2023-02-28T09:32:11;-0.20;99.90
11908;DHT22;6014;47.690;9.130;2023-02-28T09:34:39;-0.20;99.90
11908;DHT22;6014;47.690;9.130;2023-02-28T09:37:09;-0.20;99.90
11908;DHT22;6014;47.690;9.130;2023-02-28T09:39:37;-0.10;99.90
11908;DHT22;6014;47.690;9.130;2023-02-28T09:42:05;0.00;99.90
11908;DHT22;6014;47.690;9.130;2023-02-28T09:44:42;0.00;99.90
11908;DHT22;6014;47.690;9.130;2023-02-28T09:47:14;0.00;99.90
11908;DHT22;6014;47.690;9.130;2023-02-28T09:49:47;-0.10;99.90
11908;DHT22;6014;47.690;9.130;2023-02-28T09:52:19;-0.10;99.90
11908;DHT22;6014;47.690;9.130;2023-02-28T09:54:47;-0.10;99.90
11908;DHT22;6014;47.690;9.130;2023-02-28T09:57:22;0.10;99.90
11908;DHT22;6014;47.690;9.130;2023-02-28T10:00:00;0.10;99.90
11908;DHT22;6014;47.690;9.130;2023-02-28T10:02:46;0.10;99.90
11908;DHT22;6014;47.690;9.130;2023-02-28T10:05:19;0.10;99.90
11908;DHT22;6014;47.690;9.130;2023-02-28T10:08:00;0.30;99.90
11908;DHT22;6014;47.690;9.130;2023-02-28T10:10:36;0.10;99.90
11908;DHT22;6014;47.690;9.130;2023-02-28T10:13:14;0.30;99.90
11908;DHT22;6014;47.690;9.130;2023-02-28T10:15:45;0.30;99.90
11908;DHT22;6014;47.690;9.130;2023-02-28T10:18:19;0.40;99.90
11908;DHT22;6014;47.690;9.130;2023-02-28T10:20:49;0.30;99.90
11908;DHT22;6014;47.690;9.130;2023-02-28T10:23:24;0.30;99.90
11908;DHT22;6014;47.690;9.130;2023-02-28T10:25:57;0.40;99.90
11908;DHT22;6014;47.690;9.130;2023-02-28T10:28:28;0.50;99.90
11908;DHT22;6014;47.690;9.130;2023-02-28T10:30:58;0.30;99.90
11908;DHT22;6014;47.690;9.130;2023-02-28T10:33:30;0.40;99.90
11908;DHT22;6014;47.690;9.130;2023-02-28T10:35:58;0.20;99.90
11908;DHT22;6014;47.690;9.130;2023-02-28T10:38:33;0.30;99.90
11908;DHT22;6014;47.690;9.130;2023-02-28T10:41:07;0.50;99.90
11908;DHT22;6014;47.690;9.130;2023-02-28T10:43:36;0.50;99.90
11908;DHT22;6014;47.690;9.130;2023-02-28T10:46:11;0.50;99.90
11908;DHT22;6014;47.690;9.130;2023-02-28T10:48:44;0.70;99.90
11908;DHT22;6014;47.690;9.130;2023-02-28T10:51:16;0.80;99.90
11908;DHT22;6014;47.690;9.130;2023-02-28T10:53:48;0.50;99.90
11908;DHT22;6014;47.690;9.130;2023-02-28T10:56:28;0.60;99.90
11908;DHT22;6014;47.690;9.130;2023-02-28T10:58:59;0.60;99.90
11908;DHT22;6014;47.690;9.130;2023-02-28T11:01:37;0.60;99.90
11908;DHT22;6014;47.690;9.130;2023-02-28T11:04:18;0.70;99.90
11908;DHT22;6014;47.690;9.130;2023-02-28T11:06:51;0.70;99.90
11908;DHT22;6014;47.690;9.130;2023-02-28T11:09:28;0.60;99.90
11908;DHT22;6014;47.690;9.130;2023-02-28T11:11:57;0.70;99.90
11908;DHT22;6014;47.690;9.130;2023-02-28T11:14:27;0.70;99.90
11908;DHT22;6014;47.690;9.130;2023-02-28T11:17:00;0.70;99.90
11908;DHT22;6014;47.690;9.130;2023-02-28T11:19:34;0.70;99.90
11908;DHT22;6014;47.690;9.130;2023-02-28T11:22:03;0.60;99.90
11908;DHT22;6014;47.690;9.130;2023-02-28T11:24:37;0.70;99.90
11908;DHT22;6014;47.690;9.130;2023-02-28T11:27:25;0.70;99.90
11908;DHT22;6014;47.690;9.130;2023-02-28T11:29:53;0.70;99.90
11908;DHT22;6014;47.690;9.130;2023-02-28T11:32:22;0.70;99.90
11908;DHT22;6014;47.690;9.130;2023-02-28T11:35:01;0.80;99.90
11908;DHT22;6014;47.690;9.130;2023-02-28T11:37:30;0.90;99.90
11908;DHT22;6014;47.690;9.130;2023-02-28T11:40:00;0.90;99.90
11908;DHT22;6014;47.690;9.130;2023-02-28T11:42:47;1.10;99.90
11908;DHT22;6014;47.690;9.130;2023-02-28T11:45:24;1.10;99.90
11908;DHT22;6014;47.690;9.130;2023-02-28T11:47:59;0.90;99.90
11908;DHT22;6014;47.690;9.130;2023-02-28T11:50:47;0.90;99.90
11908;DHT22;6014;47.690;9.130;2023-02-28T11:53:39;1.10;99.90
11908;DHT22;6014;47.690;9.130;2023-02-28T11:56:16;1.10;99.90
11908;DHT22;6014;47.690;9.130;2023-02-28T11:58:55;1.10;99.90
11908;DHT22;6014;47.690;9.130;2023-02-28T12:01:45;1.20;99.90
11908;DHT22;6014;47.690;9.130;2023-02-28T12:04:24;1.30;99.90
11908;DHT22;6014;47.690;9.130;2023-02-28T12:06:57;1.30;99.90
11908;DHT22;6014;47.690;9.130;2023-02-28T12:09:46;1.30;99.90
11908;DHT22;6014;47.690;9.130;2023-02-28T12:12:38;1.50;99.90
11908;DHT22;6014;47.690;9.130;2023-02-28T12:15:38;1.40;99.90
11908;DHT22;6014;47.690;9.130;2023-02-28T12:21:17;1.40;99.90
11908;DHT22;6014;47.690;9.130;2023-02-28T12:24:00;1.30;99.90
11908;DHT22;6014;47.690;9.130;2023-02-28T12:26:37;1.40;99.90
11908;DHT22;6014;47.690;9.130;2023-02-28T12:29:14;1.40;99.90
11908;DHT22;6014;47.690;9.130;2023-02-28T12:31:49;1.50;99.90
11908;DHT22;6014;47.690;9.130;2023-02-28T12:34:22;1.40;99.90
11908;DHT22;6014;47.690;9.130;2023-02-28T12:36:53;1.50;99.90
11908;DHT22;6014;47.690;9.130;2023-02-28T12:39:25;1.50;99.90
11908;DHT22;6014;47.690;9.130;2023-02-28T12:42:00;1.50;99.90
11908;DHT22;6014;47.690;9.130;2023-02-28T12:44:35;1.60;99.90
11908;DHT22;6014;47.690;9.130;2023-02-28T12:47:05;1.60;99.90
11908;DHT22;6014;47.690;9.130;2023-02-28T12:49:41;1.60;99.90
11908;DHT22;6014;47.690;9.130;2023-02-28T12:52:13;1.70;99.90
11908;DHT22;6014;47.690;9.130;2023-02-28T12:54:48;1.70;99.90
11908;DHT22;6014;47.690;9.130;2023-02-28T12:57:22;1.80;99.90
11908;DHT22;6014;47.690;9.130;2023-02-28T12:59:57;1.70;99.90
11908;DHT22;6014;47.690;9.130;2023-02-28T13:02:59;1.70;99.90
11908;DHT22;6014;47.690;9.130;2023-02-28T13:06:02;1.70;99.90
11908;DHT22;6014;47.690;9.130;2023-02-28T13:09:01;1.70;99.90
11908;DHT22;6014;47.690;9.130;2023-02-28T13:11:32;1.70;99.90
11908;DHT22;6014;47.690;9.130;2023-02-28T13:14:04;1.60;99.90
11908;DHT22;6014;47.690;9.130;2023-02-28T13:17:11;1.60;99.90
11908;DHT22;6014;47.690;9.130;2023-02-28T13:19:43;1.70;99.90
11908;DHT22;6014;47.690;9.130;2023-02-28T13:22:19;1.60;99.90
11908;DHT22;6014;47.690;9.130;2023-02-28T13:24:49;1.70;99.90
11908;DHT22;6014;47.690;9.130;2023-02-28T13:27:36;1.80;99.90
11908;DHT22;6014;47.690;9.130;2023-02-28T13:33:27;1.80;99.90
11908;DHT22;6014;47.690;9.130;2023-02-28T13:36:27;1.70;99.90
11908;DHT22;6014;47.690;9.130;2023-02-28T13:38:58;1.70;99.90
11908;DHT22;6014;47.690;9.130;2023-02-28T13:41:42;1.80;99.90
11908;DHT22;6014;47.690;9.130;2023-02-28T13:44:12;1.90;99.90
11908;DHT22;6014;47.690;9.130;2023-02-28T13:49:47;1.90;99.90
11908;DHT22;6014;47.690;9.130;2023-02-28T13:52:20;1.90;99.90
11908;DHT22;6014;47.690;9.130;2023-02-28T13:55:17;1.90;99.90
11908;DHT22;6014;47.690;9.130;2023-02-28T14:01:02;1.90;99.90
11908;DHT22;6014;47.690;9.130;2023-02-28T14:04:09;1.80;99.90
11908;DHT22;6014;47.690;9.130;2023-02-28T14:06:54;1.70;99.90
11908;DHT22;6014;47.690;9.130;2023-02-28T14:09:27;1.90;99.90
11908;DHT22;6014;47.690;9.130;2023-02-28T14:18:19;1.80;99.90
11908;DHT22;6014;47.690;9.130;2023-02-28T14:20:54;1.80;99.90
11908;DHT22;6014;47.690;9.130;2023-02-28T14:23:35;1.80;99.90
11908;DHT22;6014;47.690;9.130;2023-02-28T14:26:16;1.80;99.90
11908;DHT22;6014;47.690;9.130;2023-02-28T14:28:55;1.70;99.90
11908;DHT22;6014;47.690;9.130;2023-02-28T14:31:34;1.80;99.90
11908;DHT22;6014;47.690;9.130;2023-02-28T14:34:23;1.70;99.90
11908;DHT22;6014;47.690;9.130;2023-02-28T14:37:13;1.70;99.90
11908;DHT22;6014;47.690;9.130;2023-02-28T14:39:44;1.80;99.90
11908;DHT22;6014;47.690;9.130;2023-02-28T14:42:28;1.70;99.90
11908;DHT22;6014;47.690;9.130;2023-02-28T14:44:56;1.80;99.90
11908;DHT22;6014;47.690;9.130;2023-02-28T14:47:28;1.70;99.90
11908;DHT22;6014;47.690;9.130;2023-02-28T14:49:59;1.80;99.90
11908;DHT22;6014;47.690;9.130;2023-02-28T14:52:29;1.70;99.90
11908;DHT22;6014;47.690;9.130;2023-02-28T14:55:03;1.80;99.90
11908;DHT22;6014;47.690;9.130;2023-02-28T14:57:34;1.90;99.90
11908;DHT22;6014;47.690;9.130;2023-02-28T15:00:13;1.70;99.90
11908;DHT22;6014;47.690;9.130;2023-02-28T15:02:48;1.60;99.90
11908;DHT22;6014;47.690;9.130;2023-02-28T15:05:27;1.50;99.90
11908;DHT22;6014;47.690;9.130;2023-02-28T15:08:11;1.60;99.90
11908;DHT22;6014;47.690;9.130;2023-02-28T15:10:43;1.70;99.90
11908;DHT22;6014;47.690;9.130;2023-02-28T15:13:14;1.70;99.90
11908;DHT22;6014;47.690;9.130;2023-02-28T15:15:45;1.60;99.90
11908;DHT22;6014;47.690;9.130;2023-02-28T15:18:36;1.70;99.90
11908;DHT22;6014;47.690;9.130;2023-02-28T15:21:23;1.80;99.90
11908;DHT22;6014;47.690;9.130;2023-02-28T15:23:53;1.80;99.90
11908;DHT22;6014;47.690;9.130;2023-02-28T15:26:43;1.90;99.90
11908;DHT22;6014;47.690;9.130;2023-02-28T15:29:16;2.10;99.90
11908;DHT22;6014;47.690;9.130;2023-02-28T15:31:50;2.20;99.90
11908;DHT22;6014;47.690;9.130;2023-02-28T15:34:29;2.10;99.90
11908;DHT22;6014;47.690;9.130;2023-02-28T15:37:33;2.20;99.90
11908;DHT22;6014;47.690;9.130;2023-02-28T15:40:12;2.20;99.90
11908;DHT22;6014;47.690;9.130;2023-02-28T15:42:42;2.30;99.90
11908;DHT22;6014;47.690;9.130;2023-02-28T15:45:28;2.60;99.90
11908;DHT22;6014;47.690;9.130;2023-02-28T15:48:01;2.60;99.90
11908;DHT22;6014;47.690;9.130;2023-02-28T15:50:40;2.60;99.80
11908;DHT22;6014;47.690;9.130;2023-02-28T15:53:13;2.90;99.70
11908;DHT22;6014;47.690;9.130;2023-02-28T15:55:41;2.90;99.40
11908;DHT22;6014;47.690;9.130;2023-02-28T15:58:12;3.00;98.50
11908;DHT22;6014;47.690;9.130;2023-02-28T16:00:43;2.90;99.00
11908;DHT22;6014;47.690;9.130;2023-02-28T16:03:27;3.10;98.70
11908;DHT22;6014;47.690;9.130;2023-02-28T16:06:22;2.80;97.90
11908;DHT22;6014;47.690;9.130;2023-02-28T16:08:52;2.60;98.50
11908;DHT22;6014;47.690;9.130;2023-02-28T16:11:22;2.50;99.30
11908;DHT22;6014;47.690;9.130;2023-02-28T16:13:52;2.40;99.90
11908;DHT22;6014;47.690;9.130;2023-02-28T16:16:22;2.40;99.90
11908;DHT22;6014;47.690;9.130;2023-02-28T16:18:53;2.30;99.90
11908;DHT22;6014;47.690;9.130;2023-02-28T16:21:25;2.20;99.90
11908;DHT22;6014;47.690;9.130;2023-02-28T16:23:54;2.20;99.90
11908;DHT22;6014;47.690;9.130;2023-02-28T16:26:24;2.10;99.90
11908;DHT22;6014;47.690;9.130;2023-02-28T16:28:55;2.00;99.90
11908;DHT22;6014;47.690;9.130;2023-02-28T16:31:24;2.00;99.90
11908;DHT22;6014;47.690;9.130;2023-02-28T16:33:52;1.90;99.90
11908;DHT22;6014;47.690;9.130;2023-02-28T16:36:29;1.80;99.90
11908;DHT22;6014;47.690;9.130;2023-02-28T16:38:58;1.70;99.90
11908;DHT22;6014;47.690;9.130;2023-02-28T16:41:28;1.60;99.90
11908;DHT22;6014;47.690;9.130;2023-02-28T16:43:59;1.60;99.90
11908;DHT22;6014;47.690;9.130;2023-02-28T16:46:31;1.50;99.90
11908;DHT22;6014;47.690;9.130;2023-02-28T16:49:01;1.40;99.90
11908;DHT22;6014;47.690;9.130;2023-02-28T16:51:29;1.40;99.90
11908;DHT22;6014;47.690;9.130;2023-02-28T16:54:01;1.10;99.90
11908;DHT22;6014;47.690;9.130;2023-02-28T16:56:34;1.20;99.90
11908;DHT22;6014;47.690;9.130;2023-02-28T16:59:17;1.10;99.90